sensor_id;sensor_type;location;lat;lon;timestamp;P1;durP1;ratioP1;P2;durP2;ratioP2
46377;SDS011;32083;47.360;9.650;2022-08-19T04:00:31;22.15;;;17.85;;
46377;SDS011;32083;47.360;9.650;2022-08-19T04:03:02;33.45;;;23.85;;
46377;SDS011;32083;47.360;9.650;2022-08-19T04:05:28;23.48;;;20.98;;
46377;SDS011;32083;47.360;9.650;2022-08-19T04:07:54;25.67;;;23.02;;
46377;SDS011;32083;47.360;9.650;2022-08-19T04:10:24;23.90;;;21.20;;
46377;SDS011;32083;47.360;9.650;2022-08-19T04:12:50;25.83;;;22.85;;
46377;SDS011;32083;47.360;9.650;2022-08-19T04:15:16;24.60;;;21.88;;
46377;SDS011;32083;47.360;9.650;2022-08-19T04:17:42;26.70;;;22.40;;
46377;SDS011;32083;47.360;9.650;2022-08-19T04:20:08;24.80;;;21.83;;
46377;SDS011;32083;47.360;9.650;2022-08-19T04:22:35;24.13;;;21.75;;
46377;SDS011;32083;47.360;9.650;2022-08-19T04:25:01;26.15;;;22.35;;
46377;SDS011;32083;47.360;9.650;2022-08-19T04:27:28;30.90;;;23.30;;
46377;SDS011;32083;47.360;9.650;2022-08-19T04:29:54;26.73;;;21.70;;
46377;SDS011;32083;47.360;9.650;2022-08-19T04:32:20;22.17;;;19.83;;
46377;SDS011;32083;47.360;9.650;2022-08-19T04:34:47;22.48;;;20.15;;
46377;SDS011;32083;47.360;9.650;2022-08-19T04:37:12;19.55;;;17.48;;
46377;SDS011;32083;47.360;9.650;2022-08-19T04:39:39;17.48;;;15.70;;
46377;SDS011;32083;47.360;9.650;2022-08-19T04:42:23;20.42;;;17.83;;
46377;SDS011;32083;47.360;9.650;2022-08-19T04:45:09;19.10;;;16.73;;
46377;SDS011;32083;47.360;9.650;2022-08-19T04:47:38;20.75;;;16.45;;
46377;SDS011;32083;47.360;9.650;2022-08-19T04:50:07;17.38;;;15.57;;
46377;SDS011;32083;47.360;9.650;2022-08-19T04:52:36;18.08;;;16.38;;
46377;SDS011;32083;47.360;9.650;2022-08-19T04:55:03;17.25;;;15.15;;
46377;SDS011;32083;47.360;9.650;2022-08-19T04:57:31;17.67;;;15.88;;
46377;SDS011;32083;47.360;9.650;2022-08-19T04:59:57;16.05;;;14.55;;
46377;SDS011;32083;47.360;9.650;2022-08-19T05:02:24;15.18;;;13.63;;
46377;SDS011;32083;47.360;9.650;2022-08-19T05:04:56;15.25;;;13.73;;
46377;SDS011;32083;47.360;9.650;2022-08-19T05:07:24;16.83;;;15.15;;
46377;SDS011;32083;47.360;9.650;2022-08-19T05:09:50;16.75;;;15.00;;
46377;SDS011;32083;47.360;9.650;2022-08-19T05:12:17;18.05;;;15.82;;
46377;SDS011;32083;47.360;9.650;2022-08-19T05:14:43;16.50;;;14.05;;
46377;SDS011;32083;47.360;9.650;2022-08-19T05:17:11;19.25;;;16.58;;
46377;SDS011;32083;47.360;9.650;2022-08-19T05:19:37;16.33;;;14.68;;
46377;SDS011;32083;47.360;9.650;2022-08-19T05:22:22;17.83;;;15.90;;
46377;SDS011;32083;47.360;9.650;2022-08-19T05:25:01;18.77;;;16.85;;
46377;SDS011;32083;47.360;9.650;2022-08-19T05:27:32;19.55;;;16.23;;
46377;SDS011;32083;47.360;9.650;2022-08-19T05:29:59;18.90;;;17.05;;
46377;SDS011;32083;47.360;9.650;2022-08-19T05:32:25;17.05;;;15.35;;
46377;SDS011;32083;47.360;9.650;2022-08-19T05:34:51;16.90;;;15.20;;
46377;SDS011;32083;47.360;9.650;2022-08-19T05:37:17;17.98;;;15.65;;
46377;SDS011;32083;47.360;9.650;2022-08-19T05:39:43;17.80;;;16.02;;
46377;SDS011;32083;47.360;9.650;2022-08-19T05:42:10;18.52;;;16.60;;
46377;SDS011;32083;47.360;9.650;2022-08-19T05:44:38;18.58;;;15.43;;
46377;SDS011;32083;47.360;9.650;2022-08-19T05:47:11;13.63;;;12.27;;
46377;SDS011;32083;47.360;9.650;2022-08-19T05:49:38;14.07;;;12.38;;
46377;SDS011;32083;47.360;9.650;2022-08-19T05:52:05;14.60;;;13.10;;
46377;SDS011;32083;47.360;9.650;2022-08-19T05:54:33;15.18;;;13.70;;
46377;SDS011;32083;47.360;9.650;2022-08-19T05:57:02;13.63;;;12.15;;
46377;SDS011;32083;47.360;9.650;2022-08-19T05:59:29;13.68;;;12.32;;
46377;SDS011;32083;47.360;9.650;2022-08-19T06:01:55;14.88;;;13.23;;
46377;SDS011;32083;47.360;9.650;2022-08-19T06:04:22;13.38;;;11.98;;
46377;SDS011;32083;47.360;9.650;2022-08-19T06:06:49;14.02;;;12.50;;
46377;SDS011;32083;47.360;9.650;2022-08-19T06:09:17;15.13;;;13.65;;
46377;SDS011;32083;47.360;9.650;2022-08-19T06:11:45;14.63;;;13.13;;
46377;SDS011;32083;47.360;9.650;2022-08-19T06:14:19;16.70;;;15.00;;
46377;SDS011;32083;47.360;9.650;2022-08-19T06:16:48;17.67;;;15.77;;
46377;SDS011;32083;47.360;9.650;2022-08-19T06:19:18;19.65;;;16.30;;
46377;SDS011;32083;47.360;9.650;2022-08-19T06:21:47;15.25;;;13.15;;
46377;SDS011;32083;47.360;9.650;2022-08-19T06:24:17;14.70;;;13.13;;
46377;SDS011;32083;47.360;9.650;2022-08-19T06:26:48;15.97;;;14.10;;
46377;SDS011;32083;47.360;9.650;2022-08-19T06:29:16;14.75;;;13.25;;
46377;SDS011;32083;47.360;9.650;2022-08-19T06:31:44;19.67;;;15.55;;
46377;SDS011;32083;47.360;9.650;2022-08-19T06:34:14;19.52;;;16.23;;
46377;SDS011;32083;47.360;9.650;2022-08-19T06:36:42;16.65;;;14.95;;
46377;SDS011;32083;47.360;9.650;2022-08-19T06:39:17;17.42;;;15.15;;
46377;SDS011;32083;47.360;9.650;2022-08-19T06:41:49;17.38;;;15.15;;
46377;SDS011;32083;47.360;9.650;2022-08-19T06:44:17;16.50;;;14.80;;
46377;SDS011;32083;47.360;9.650;2022-08-19T06:46:44;15.55;;;13.95;;
46377;SDS011;32083;47.360;9.650;2022-08-19T06:49:10;16.83;;;14.95;;
46377;SDS011;32083;47.360;9.650;2022-08-19T06:51:42;16.30;;;14.70;;
46377;SDS011;32083;47.360;9.650;2022-08-19T06:54:09;18.52;;;16.67;;
46377;SDS011;32083;47.360;9.650;2022-08-19T06:56:36;19.30;;;17.33;;
46377;SDS011;32083;47.360;9.650;2022-08-19T06:59:04;15.18;;;13.73;;
46377;SDS011;32083;47.360;9.650;2022-08-19T07:01:42;15.10;;;13.55;;
46377;SDS011;32083;47.360;9.650;2022-08-19T07:04:12;15.07;;;13.68;;
46377;SDS011;32083;47.360;9.650;2022-08-19T07:06:40;14.00;;;12.70;;
46377;SDS011;32083;47.360;9.650;2022-08-19T07:09:08;13.63;;;12.35;;
46377;SDS011;32083;47.360;9.650;2022-08-19T07:11:35;13.07;;;11.88;;
46377;SDS011;32083;47.360;9.650;2022-08-19T07:14:01;14.50;;;13.00;;
46377;SDS011;32083;47.360;9.650;2022-08-19T07:16:28;15.10;;;13.50;;
46377;SDS011;32083;47.360;9.650;2022-08-19T07:18:54;13.88;;;12.35;;
46377;SDS011;32083;47.360;9.650;2022-08-19T07:21:25;15.93;;;14.07;;
46377;SDS011;32083;47.360;9.650;2022-08-19T07:23:53;16.25;;;14.55;;
46377;SDS011;32083;47.360;9.650;2022-08-19T07:26:25;15.18;;;13.60;;
46377;SDS011;32083;47.360;9.650;2022-08-19T07:28:53;16.60;;;15.00;;
46377;SDS011;32083;47.360;9.650;2022-08-19T07:31:21;15.95;;;14.35;;
46377;SDS011;32083;47.360;9.650;2022-08-19T07:33:49;15.50;;;13.90;;
46377;SDS011;32083;47.360;9.650;2022-08-19T07:36:18;15.98;;;14.45;;
46377;SDS011;32083;47.360;9.650;2022-08-19T07:38:47;17.13;;;15.50;;
46377;SDS011;32083;47.360;9.650;2022-08-19T07:41:19;14.68;;;13.32;;
46377;SDS011;32083;47.360;9.650;2022-08-19T07:43:49;17.98;;;15.57;;
46377;SDS011;32083;47.360;9.650;2022-08-19T07:46:17;16.13;;;14.45;;
46377;SDS011;32083;47.360;9.650;2022-08-19T07:48:45;17.10;;;15.30;;
46377;SDS011;32083;47.360;9.650;2022-08-19T07:51:13;17.23;;;15.23;;
46377;SDS011;32083;47.360;9.650;2022-08-19T07:53:41;16.17;;;14.57;;
46377;SDS011;32083;47.360;9.650;2022-08-19T07:56:10;16.23;;;13.13;;
46377;SDS011;32083;47.360;9.650;2022-08-19T07:58:38;14.73;;;12.73;;
46377;SDS011;32083;47.360;9.650;2022-08-19T08:01:07;12.07;;;10.88;;
46377;SDS011;32083;47.360;9.650;2022-08-19T08:03:35;11.48;;;10.38;;
46377;SDS011;32083;47.360;9.650;2022-08-19T08:06:20;11.68;;;9.90;;
46377;SDS011;32083;47.360;9.650;2022-08-19T08:09:05;12.65;;;11.45;;
46377;SDS011;32083;47.360;9.650;2022-08-19T08:14:21;11.75;;;10.55;;
46377;SDS011;32083;47.360;9.650;2022-08-19T08:16:50;11.95;;;10.75;;
46377;SDS011;32083;47.360;9.650;2022-08-19T08:19:17;13.35;;;11.95;;
46377;SDS011;32083;47.360;9.650;2022-08-19T08:21:44;13.15;;;11.02;;
46377;SDS011;32083;47.360;9.650;2022-08-19T08:24:11;11.77;;;10.57;;
46377;SDS011;32083;47.360;9.650;2022-08-19T08:26:37;11.80;;;10.60;;
46377;SDS011;32083;47.360;9.650;2022-08-19T08:29:04;12.30;;;11.00;;
46377;SDS011;32083;47.360;9.650;2022-08-19T08:31:32;13.48;;;11.25;;
46377;SDS011;32083;47.360;9.650;2022-08-19T08:33:59;11.73;;;10.52;;
46377;SDS011;32083;47.360;9.650;2022-08-19T08:36:25;12.90;;;11.60;;
46377;SDS011;32083;47.360;9.650;2022-08-19T08:38:52;10.05;;;9.05;;
46377;SDS011;32083;47.360;9.650;2022-08-19T08:41:22;13.48;;;10.52;;
46377;SDS011;32083;47.360;9.650;2022-08-19T08:44:03;16.55;;;14.25;;
46377;SDS011;32083;47.360;9.650;2022-08-19T08:46:44;14.65;;;13.10;;
46377;SDS011;32083;47.360;9.650;2022-08-19T08:49:19;15.07;;;12.10;;
46377;SDS011;32083;47.360;9.650;2022-08-19T08:52:10;15.48;;;12.20;;
46377;SDS011;32083;47.360;9.650;2022-08-19T08:54:57;12.68;;;11.38;;
46377;SDS011;32083;47.360;9.650;2022-08-19T09:00:00;16.40;;;14.65;;
46377;SDS011;32083;47.360;9.650;2022-08-19T09:02:32;15.80;;;14.20;;
46377;SDS011;32083;47.360;9.650;2022-08-19T09:04:59;17.80;;;15.90;;
46377;SDS011;32083;47.360;9.650;2022-08-19T09:10:34;16.95;;;15.15;;
46377;SDS011;32083;47.360;9.650;2022-08-19T09:16:25;16.35;;;14.63;;
46377;SDS011;32083;47.360;9.650;2022-08-19T09:18:57;18.77;;;16.83;;
46377;SDS011;32083;47.360;9.650;2022-08-19T09:21:27;19.95;;;16.33;;
46377;SDS011;32083;47.360;9.650;2022-08-19T09:23:53;17.80;;;15.93;;
46377;SDS011;32083;47.360;9.650;2022-08-19T09:26:21;20.73;;;18.25;;
46377;SDS011;32083;47.360;9.650;2022-08-19T09:28:49;18.73;;;16.77;;
46377;SDS011;32083;47.360;9.650;2022-08-19T09:31:24;17.95;;;15.98;;
46377;SDS011;32083;47.360;9.650;2022-08-19T09:33:52;18.00;;;16.17;;
46377;SDS011;32083;47.360;9.650;2022-08-19T09:36:22;16.60;;;15.00;;
46377;SDS011;32083;47.360;9.650;2022-08-19T09:38:50;19.70;;;16.92;;
46377;SDS011;32083;47.360;9.650;2022-08-19T09:41:18;19.52;;;16.83;;
46377;SDS011;32083;47.360;9.650;2022-08-19T09:43:46;19.88;;;17.83;;
46377;SDS011;32083;47.360;9.650;2022-08-19T09:46:16;17.23;;;15.52;;
46377;SDS011;32083;47.360;9.650;2022-08-19T09:48:46;15.30;;;13.80;;
46377;SDS011;32083;47.360;9.650;2022-08-19T09:51:15;13.23;;;12.02;;
46377;SDS011;32083;47.360;9.650;2022-08-19T09:53:43;14.55;;;13.07;;
46377;SDS011;32083;47.360;9.650;2022-08-19T09:56:11;14.30;;;12.80;;
46377;SDS011;32083;47.360;9.650;2022-08-19T09:58:37;15.85;;;13.65;;
46377;SDS011;32083;47.360;9.650;2022-08-19T10:01:04;14.95;;;12.63;;
46377;SDS011;32083;47.360;9.650;2022-08-19T10:03:32;12.43;;;11.13;;
46377;SDS011;32083;47.360;9.650;2022-08-19T10:06:00;9.90;;;8.95;;
46377;SDS011;32083;47.360;9.650;2022-08-19T10:08:29;10.48;;;9.43;;
46377;SDS011;32083;47.360;9.650;2022-08-19T10:10:59;12.75;;;9.05;;
46377;SDS011;32083;47.360;9.650;2022-08-19T10:13:27;9.57;;;8.52;;
46377;SDS011;32083;47.360;9.650;2022-08-19T10:15:56;11.70;;;9.50;;
46377;SDS011;32083;47.360;9.650;2022-08-19T10:18:27;9.73;;;8.40;;
46377;SDS011;32083;47.360;9.650;2022-08-19T10:21:01;10.25;;;9.18;;
46377;SDS011;32083;47.360;9.650;2022-08-19T10:23:40;9.43;;;8.52;;
46377;SDS011;32083;47.360;9.650;2022-08-19T10:26:16;12.27;;;9.75;;
46377;SDS011;32083;47.360;9.650;2022-08-19T10:28:44;12.47;;;10.30;;
46377;SDS011;32083;47.360;9.650;2022-08-19T10:31:25;11.60;;;10.43;;
46377;SDS011;32083;47.360;9.650;2022-08-19T10:33:53;11.23;;;9.98;;
46377;SDS011;32083;47.360;9.650;2022-08-19T10:36:24;14.07;;;11.20;;
46377;SDS011;32083;47.360;9.650;2022-08-19T10:39:02;10.02;;;9.10;;
46377;SDS011;32083;47.360;9.650;2022-08-19T10:41:31;12.27;;;10.38;;
46377;SDS011;32083;47.360;9.650;2022-08-19T10:44:01;9.35;;;8.35;;
46377;SDS011;32083;47.360;9.650;2022-08-19T10:46:30;8.32;;;7.40;;
46377;SDS011;32083;47.360;9.650;2022-08-19T10:49:01;8.75;;;7.85;;
46377;SDS011;32083;47.360;9.650;2022-08-19T10:51:29;8.50;;;7.70;;
46377;SDS011;32083;47.360;9.650;2022-08-19T10:54:14;8.43;;;7.22;;
46377;SDS011;32083;47.360;9.650;2022-08-19T10:56:40;7.07;;;6.25;;
46377;SDS011;32083;47.360;9.650;2022-08-19T10:59:21;6.57;;;5.97;;
46377;SDS011;32083;47.360;9.650;2022-08-19T11:01:49;4.60;;;4.10;;
46377;SDS011;32083;47.360;9.650;2022-08-19T11:04:17;7.40;;;4.95;;
46377;SDS011;32083;47.360;9.650;2022-08-19T11:06:44;4.97;;;3.72;;
46377;SDS011;32083;47.360;9.650;2022-08-19T11:09:16;4.65;;;3.13;;
46377;SDS011;32083;47.360;9.650;2022-08-19T11:11:44;4.80;;;3.25;;
46377;SDS011;32083;47.360;9.650;2022-08-19T11:14:12;5.25;;;2.70;;
46377;SDS011;32083;47.360;9.650;2022-08-19T11:16:39;2.28;;;2.00;;
46377;SDS011;32083;47.360;9.650;2022-08-19T11:19:08;3.85;;;2.50;;
46377;SDS011;32083;47.360;9.650;2022-08-19T11:21:37;5.75;;;2.60;;
46377;SDS011;32083;47.360;9.650;2022-08-19T11:24:06;5.03;;;2.05;;
46377;SDS011;32083;47.360;9.650;2022-08-19T11:26:38;3.65;;;2.08;;
46377;SDS011;32083;47.360;9.650;2022-08-19T11:29:06;4.18;;;1.85;;
46377;SDS011;32083;47.360;9.650;2022-08-19T11:31:36;3.90;;;2.40;;
46377;SDS011;32083;47.360;9.650;2022-08-19T11:34:05;5.47;;;3.05;;
46377;SDS011;32083;47.360;9.650;2022-08-19T11:36:33;4.10;;;2.92;;
46377;SDS011;32083;47.360;9.650;2022-08-19T11:39:04;6.32;;;4.10;;
46377;SDS011;32083;47.360;9.650;2022-08-19T11:41:31;4.18;;;2.70;;
46377;SDS011;32083;47.360;9.650;2022-08-19T11:43:58;3.30;;;2.88;;
46377;SDS011;32083;47.360;9.650;2022-08-19T11:46:24;5.15;;;2.53;;
46377;SDS011;32083;47.360;9.650;2022-08-19T11:48:54;3.30;;;2.42;;
46377;SDS011;32083;47.360;9.650;2022-08-19T11:51:25;9.15;;;2.00;;
46377;SDS011;32083;47.360;9.650;2022-08-19T11:53:53;2.13;;;1.80;;
46377;SDS011;32083;47.360;9.650;2022-08-19T11:56:21;2.78;;;1.60;;
46377;SDS011;32083;47.360;9.650;2022-08-19T11:58:48;3.83;;;1.45;;
46377;SDS011;32083;47.360;9.650;2022-08-19T12:01:16;2.95;;;1.50;;
46377;SDS011;32083;47.360;9.650;2022-08-19T12:03:44;1.70;;;1.02;;
46377;SDS011;32083;47.360;9.650;2022-08-19T12:06:13;5.78;;;1.52;;
46377;SDS011;32083;47.360;9.650;2022-08-19T12:11:11;1.70;;;1.30;;
46377;SDS011;32083;47.360;9.650;2022-08-19T12:13:39;2.33;;;1.50;;
46377;SDS011;32083;47.360;9.650;2022-08-19T12:16:13;2.08;;;1.85;;
46377;SDS011;32083;47.360;9.650;2022-08-19T12:18:42;3.17;;;1.10;;
46377;SDS011;32083;47.360;9.650;2022-08-19T12:21:11;1.98;;;1.17;;
46377;SDS011;32083;47.360;9.650;2022-08-19T12:23:46;3.47;;;1.55;;
46377;SDS011;32083;47.360;9.650;2022-08-19T12:26:13;1.48;;;1.13;;
46377;SDS011;32083;47.360;9.650;2022-08-19T12:28:39;2.38;;;0.90;;
46377;SDS011;32083;47.360;9.650;2022-08-19T12:31:06;1.45;;;0.77;;
46377;SDS011;32083;47.360;9.650;2022-08-19T12:33:33;5.15;;;1.13;;
46377;SDS011;32083;47.360;9.650;2022-08-19T12:36:00;0.90;;;0.80;;
46377;SDS011;32083;47.360;9.650;2022-08-19T12:38:28;1.63;;;0.90;;
46377;SDS011;32083;47.360;9.650;2022-08-19T12:40:55;1.73;;;1.13;;
46377;SDS011;32083;47.360;9.650;2022-08-19T12:43:21;1.13;;;0.80;;
46377;SDS011;32083;47.360;9.650;2022-08-19T12:45:47;1.80;;;0.90;;
46377;SDS011;32083;47.360;9.650;2022-08-19T12:48:13;1.45;;;0.95;;
46377;SDS011;32083;47.360;9.650;2022-08-19T12:50:40;1.30;;;1.00;;
46377;SDS011;32083;47.360;9.650;2022-08-19T12:53:09;1.10;;;0.70;;
46377;SDS011;32083;47.360;9.650;2022-08-19T12:55:36;2.95;;;1.05;;
46377;SDS011;32083;47.360;9.650;2022-08-19T12:58:02;1.67;;;0.98;;
46377;SDS011;32083;47.360;9.650;2022-08-19T13:00:28;1.48;;;0.80;;
46377;SDS011;32083;47.360;9.650;2022-08-19T13:02:57;1.25;;;0.90;;
46377;SDS011;32083;47.360;9.650;2022-08-19T13:05:25;1.98;;;0.70;;
46377;SDS011;32083;47.360;9.650;2022-08-19T13:07:56;0.68;;;0.60;;
46377;SDS011;32083;47.360;9.650;2022-08-19T13:10:25;0.85;;;0.65;;
46377;SDS011;32083;47.360;9.650;2022-08-19T13:12:54;0.93;;;0.70;;
46377;SDS011;32083;47.360;9.650;2022-08-19T13:15:21;1.08;;;0.55;;
46377;SDS011;32083;47.360;9.650;2022-08-19T13:17:49;0.70;;;0.63;;
46377;SDS011;32083;47.360;9.650;2022-08-19T13:20:17;1.42;;;0.60;;
46377;SDS011;32083;47.360;9.650;2022-08-19T13:22:44;2.58;;;1.10;;
46377;SDS011;32083;47.360;9.650;2022-08-19T13:25:13;3.42;;;1.20;;
46377;SDS011;32083;47.360;9.650;2022-08-19T13:27:42;3.08;;;1.80;;
46377;SDS011;32083;47.360;9.650;2022-08-19T13:30:09;1.65;;;1.35;;
46377;SDS011;32083;47.360;9.650;2022-08-19T13:32:56;2.10;;;1.25;;
46377;SDS011;32083;47.360;9.650;2022-08-19T13:35:51;1.23;;;1.10;;
46377;SDS011;32083;47.360;9.650;2022-08-19T13:38:22;1.50;;;1.13;;
46377;SDS011;32083;47.360;9.650;2022-08-19T13:40:50;3.53;;;1.30;;
46377;SDS011;32083;47.360;9.650;2022-08-19T13:43:18;2.78;;;2.03;;
46377;SDS011;32083;47.360;9.650;2022-08-19T13:45:50;2.20;;;1.88;;
46377;SDS011;32083;47.360;9.650;2022-08-19T13:48:20;2.33;;;1.70;;
46377;SDS011;32083;47.360;9.650;2022-08-19T13:50:47;4.82;;;2.22;;
46377;SDS011;32083;47.360;9.650;2022-08-19T13:53:15;2.00;;;1.80;;
46377;SDS011;32083;47.360;9.650;2022-08-19T13:55:43;5.18;;;1.40;;
46377;SDS011;32083;47.360;9.650;2022-08-19T13:58:09;2.47;;;1.50;;
46377;SDS011;32083;47.360;9.650;2022-08-19T14:00:42;3.25;;;1.88;;
46377;SDS011;32083;47.360;9.650;2022-08-19T14:03:11;2.38;;;1.90;;
46377;SDS011;32083;47.360;9.650;2022-08-19T14:05:37;2.00;;;1.77;;
46377;SDS011;32083;47.360;9.650;2022-08-19T14:08:05;2.15;;;1.55;;
46377;SDS011;32083;47.360;9.650;2022-08-19T14:10:35;3.95;;;1.80;;
46377;SDS011;32083;47.360;9.650;2022-08-19T14:13:02;3.55;;;2.55;;
46377;SDS011;32083;47.360;9.650;2022-08-19T14:15:29;3.38;;;2.13;;
46377;SDS011;32083;47.360;9.650;2022-08-19T14:17:57;4.40;;;2.03;;
46377;SDS011;32083;47.360;9.650;2022-08-19T14:20:36;2.78;;;2.45;;
46377;SDS011;32083;47.360;9.650;2022-08-19T14:23:06;3.42;;;2.20;;
46377;SDS011;32083;47.360;9.650;2022-08-19T14:25:34;2.97;;;2.10;;
46377;SDS011;32083;47.360;9.650;2022-08-19T14:28:00;2.90;;;2.42;;
46377;SDS011;32083;47.360;9.650;2022-08-19T14:30:31;3.20;;;2.20;;
46377;SDS011;32083;47.360;9.650;2022-08-19T14:33:03;2.83;;;1.90;;
46377;SDS011;32083;47.360;9.650;2022-08-19T14:35:33;2.35;;;1.65;;
46377;SDS011;32083;47.360;9.650;2022-08-19T14:38:05;2.40;;;1.83;;
46377;SDS011;32083;47.360;9.650;2022-08-19T14:40:40;2.55;;;2.00;;
46377;SDS011;32083;47.360;9.650;2022-08-19T14:43:08;3.45;;;1.88;;
46377;SDS011;32083;47.360;9.650;2022-08-19T14:45:36;3.25;;;2.20;;
46377;SDS011;32083;47.360;9.650;2022-08-19T14:51:09;2.47;;;1.75;;
46377;SDS011;32083;47.360;9.650;2022-08-19T14:53:36;2.80;;;2.13;;
46377;SDS011;32083;47.360;9.650;2022-08-19T14:56:28;3.33;;;2.38;;
46377;SDS011;32083;47.360;9.650;2022-08-19T14:59:46;4.85;;;2.53;;
46377;SDS011;32083;47.360;9.650;2022-08-19T15:02:18;3.08;;;2.35;;
46377;SDS011;32083;47.360;9.650;2022-08-19T15:04:46;3.08;;;2.45;;
46377;SDS011;32083;47.360;9.650;2022-08-19T15:07:16;4.00;;;3.15;;
46377;SDS011;32083;47.360;9.650;2022-08-19T15:09:43;3.63;;;2.72;;
46377;SDS011;32083;47.360;9.650;2022-08-19T15:12:17;4.47;;;4.00;;
46377;SDS011;32083;47.360;9.650;2022-08-19T15:14:44;3.90;;;3.40;;
46377;SDS011;32083;47.360;9.650;2022-08-19T15:17:25;3.72;;;3.28;;
46377;SDS011;32083;47.360;9.650;2022-08-19T15:19:57;4.38;;;3.40;;
46377;SDS011;32083;47.360;9.650;2022-08-19T15:22:26;3.42;;;3.00;;
46377;SDS011;32083;47.360;9.650;2022-08-19T15:24:53;5.43;;;3.40;;
46377;SDS011;32083;47.360;9.650;2022-08-19T15:27:21;4.40;;;3.50;;
46377;SDS011;32083;47.360;9.650;2022-08-19T15:29:54;3.90;;;3.05;;
46377;SDS011;32083;47.360;9.650;2022-08-19T15:32:23;3.85;;;3.45;;
46377;SDS011;32083;47.360;9.650;2022-08-19T15:34:52;3.78;;;3.42;;
46377;SDS011;32083;47.360;9.650;2022-08-19T15:37:19;4.20;;;3.65;;
46377;SDS011;32083;47.360;9.650;2022-08-19T15:39:51;4.28;;;3.88;;
46377;SDS011;32083;47.360;9.650;2022-08-19T15:42:20;4.88;;;4.38;;
46377;SDS011;32083;47.360;9.650;2022-08-19T15:44:51;4.30;;;3.90;;
46377;SDS011;32083;47.360;9.650;2022-08-19T15:47:19;4.28;;;3.88;;
46377;SDS011;32083;47.360;9.650;2022-08-19T15:49:49;3.95;;;3.58;;
46377;SDS011;32083;47.360;9.650;2022-08-19T15:52:18;5.40;;;3.90;;
46377;SDS011;32083;47.360;9.650;2022-08-19T15:54:45;4.65;;;3.97;;
46377;SDS011;32083;47.360;9.650;2022-08-19T15:57:13;5.20;;;4.70;;
46377;SDS011;32083;47.360;9.650;2022-08-19T15:59:55;4.63;;;4.13;;
46377;SDS011;32083;47.360;9.650;2022-08-19T16:02:53;5.95;;;5.05;;
46377;SDS011;32083;47.360;9.650;2022-08-19T16:08:13;6.47;;;4.78;;
46377;SDS011;32083;47.360;9.650;2022-08-19T16:10:39;6.10;;;4.88;;
46377;SDS011;32083;47.360;9.650;2022-08-19T16:13:05;5.97;;;5.35;;
46377;SDS011;32083;47.360;9.650;2022-08-19T16:15:31;5.65;;;5.05;;
46377;SDS011;32083;47.360;9.650;2022-08-19T16:17:58;5.28;;;4.80;;
46377;SDS011;32083;47.360;9.650;2022-08-19T16:20:28;5.72;;;5.22;;
46377;SDS011;32083;47.360;9.650;2022-08-19T16:22:56;5.93;;;5.32;;
46377;SDS011;32083;47.360;9.650;2022-08-19T16:25:23;6.82;;;6.03;;
46377;SDS011;32083;47.360;9.650;2022-08-19T16:27:52;5.50;;;5.00;;
46377;SDS011;32083;47.360;9.650;2022-08-19T16:30:18;6.40;;;5.80;;
46377;SDS011;32083;47.360;9.650;2022-08-19T16:32:45;5.13;;;4.63;;
46377;SDS011;32083;47.360;9.650;2022-08-19T16:35:11;7.05;;;5.43;;
46377;SDS011;32083;47.360;9.650;2022-08-19T16:37:37;6.65;;;5.55;;
46377;SDS011;32083;47.360;9.650;2022-08-19T16:40:03;6.40;;;5.75;;
46377;SDS011;32083;47.360;9.650;2022-08-19T16:42:32;7.90;;;7.20;;
46377;SDS011;32083;47.360;9.650;2022-08-19T16:44:59;8.95;;;8.05;;
46377;SDS011;32083;47.360;9.650;2022-08-19T16:47:25;7.90;;;7.13;;
46377;SDS011;32083;47.360;9.650;2022-08-19T16:49:51;7.32;;;6.57;;
46377;SDS011;32083;47.360;9.650;2022-08-19T16:52:17;8.68;;;7.78;;
46377;SDS011;32083;47.360;9.650;2022-08-19T16:54:44;10.18;;;9.18;;
46377;SDS011;32083;47.360;9.650;2022-08-19T16:57:12;8.63;;;7.82;;
46377;SDS011;32083;47.360;9.650;2022-08-19T16:59:39;8.15;;;7.35;;
46377;SDS011;32083;47.360;9.650;2022-08-19T17:02:05;9.05;;;8.15;;
46377;SDS011;32083;47.360;9.650;2022-08-19T17:04:31;8.65;;;7.75;;
46377;SDS011;32083;47.360;9.650;2022-08-19T17:06:57;10.63;;;9.63;;
46377;SDS011;32083;47.360;9.650;2022-08-19T17:09:23;8.32;;;7.55;;
46377;SDS011;32083;47.360;9.650;2022-08-19T17:11:49;9.48;;;8.27;;
46377;SDS011;32083;47.360;9.650;2022-08-19T17:14:15;10.43;;;8.50;;
46377;SDS011;32083;47.360;9.650;2022-08-19T17:16:43;10.38;;;9.38;;
46377;SDS011;32083;47.360;9.650;2022-08-19T17:19:09;9.43;;;8.43;;
46377;SDS011;32083;47.360;9.650;2022-08-19T17:21:36;9.40;;;8.50;;
46377;SDS011;32083;47.360;9.650;2022-08-19T17:24:05;11.02;;;9.75;;
46377;SDS011;32083;47.360;9.650;2022-08-19T17:26:33;10.55;;;9.55;;
46377;SDS011;32083;47.360;9.650;2022-08-19T17:29:00;10.68;;;9.68;;
46377;SDS011;32083;47.360;9.650;2022-08-19T17:31:27;12.20;;;10.93;;
46377;SDS011;32083;47.360;9.650;2022-08-19T17:33:54;11.63;;;10.57;;
46377;SDS011;32083;47.360;9.650;2022-08-19T17:36:23;11.80;;;10.80;;
46377;SDS011;32083;47.360;9.650;2022-08-19T17:38:52;11.40;;;10.27;;
46377;SDS011;32083;47.360;9.650;2022-08-19T17:41:19;11.25;;;10.20;;
46377;SDS011;32083;47.360;9.650;2022-08-19T17:43:46;9.68;;;8.68;;
46377;SDS011;32083;47.360;9.650;2022-08-19T17:46:12;10.73;;;9.35;;
46377;SDS011;32083;47.360;9.650;2022-08-19T17:48:41;12.43;;;9.98;;
46377;SDS011;32083;47.360;9.650;2022-08-19T17:51:14;10.70;;;9.60;;
46377;SDS011;32083;47.360;9.650;2022-08-19T17:53:50;9.20;;;8.40;;
46377;SDS011;32083;47.360;9.650;2022-08-19T17:56:17;9.65;;;8.70;;
46377;SDS011;32083;47.360;9.650;2022-08-19T17:58:45;10.23;;;8.77;;
46377;SDS011;32083;47.360;9.650;2022-08-19T18:01:12;8.80;;;8.00;;
46377;SDS011;32083;47.360;9.650;2022-08-19T18:03:40;10.82;;;9.68;;
46377;SDS011;32083;47.360;9.650;2022-08-19T18:06:07;9.70;;;8.80;;
46377;SDS011;32083;47.360;9.650;2022-08-19T18:08:34;11.18;;;10.10;;
46377;SDS011;32083;47.360;9.650;2022-08-19T18:11:04;11.65;;;10.60;;
46377;SDS011;32083;47.360;9.650;2022-08-19T18:13:31;11.93;;;10.73;;
46377;SDS011;32083;47.360;9.650;2022-08-19T18:15:58;11.32;;;9.98;;
46377;SDS011;32083;47.360;9.650;2022-08-19T18:18:24;11.15;;;10.05;;
46377;SDS011;32083;47.360;9.650;2022-08-19T18:20:53;12.07;;;10.88;;
46377;SDS011;32083;47.360;9.650;2022-08-19T18:23:20;14.27;;;10.02;;
46377;SDS011;32083;47.360;9.650;2022-08-19T18:25:47;10.25;;;9.25;;
46377;SDS011;32083;47.360;9.650;2022-08-19T18:28:13;9.38;;;7.90;;
46377;SDS011;32083;47.360;9.650;2022-08-19T18:30:39;8.02;;;7.25;;
46377;SDS011;32083;47.360;9.650;2022-08-19T18:33:07;9.07;;;7.45;;
46377;SDS011;32083;47.360;9.650;2022-08-19T18:35:38;8.52;;;7.80;;
46377;SDS011;32083;47.360;9.650;2022-08-19T18:38:10;8.38;;;7.57;;
46377;SDS011;32083;47.360;9.650;2022-08-19T18:40:56;7.70;;;7.00;;
46377;SDS011;32083;47.360;9.650;2022-08-19T18:43:40;7.85;;;7.05;;
46377;SDS011;32083;47.360;9.650;2022-08-19T18:46:25;7.50;;;6.80;;
46377;SDS011;32083;47.360;9.650;2022-08-19T18:49:10;8.90;;;8.05;;
46377;SDS011;32083;47.360;9.650;2022-08-19T18:51:41;6.07;;;5.47;;
46377;SDS011;32083;47.360;9.650;2022-08-19T18:54:07;5.53;;;5.03;;
46377;SDS011;32083;47.360;9.650;2022-08-19T18:56:34;4.72;;;4.32;;
46377;SDS011;32083;47.360;9.650;2022-08-19T18:59:03;5.05;;;4.47;;
46377;SDS011;32083;47.360;9.650;2022-08-19T19:01:33;6.00;;;4.35;;
46377;SDS011;32083;47.360;9.650;2022-08-19T19:04:07;4.77;;;4.37;;
46377;SDS011;32083;47.360;9.650;2022-08-19T19:06:37;5.00;;;4.50;;
46377;SDS011;32083;47.360;9.650;2022-08-19T19:09:07;5.25;;;4.75;;